sensor_id;sensor_type;location;lat;lon;timestamp;pressure;altitude;pressure_sealevel;temperature;humidity
20860;BME280;10590;48.154;11.514;2023-02-11T00:02:17;97544.63;;;-2.09;76.69
20860;BME280;10590;48.154;11.514;2023-02-11T00:07:18;97552.72;;;-2.04;76.54
20860;BME280;10590;48.154;11.514;2023-02-11T00:12:22;97544.22;;;-1.84;75.24
20860;BME280;10590;48.154;11.514;2023-02-11T00:17:23;97522.94;;;-2.03;75.16
20860;BME280;10590;48.154;11.514;2023-02-11T00:22:25;97554.19;;;-1.95;75.57
20860;BME280;10590;48.154;11.514;2023-02-11T00:27:29;97557.44;;;-1.93;75.53
20860;BME280;10590;48.154;11.514;2023-02-11T00:32:31;97542.25;;;-2.04;76.41
20860;BME280;10590;48.154;11.514;2023-02-11T00:37:32;97536.28;;;-2.19;76.82
20860;BME280;10590;48.154;11.514;2023-02-11T00:42:37;97524.34;;;-2.28;76.75
20860;BME280;10590;48.154;11.514;2023-02-11T00:47:38;97529.06;;;-2.38;77.88
20860;BME280;10590;48.154;11.514;2023-02-11T00:52:40;97520.53;;;-2.47;78.36
20860;BME280;10590;48.154;11.514;2023-02-11T00:57:43;97522.72;;;-2.50;78.38
20860;BME280;10590;48.154;11.514;2023-02-11T01:02:45;97517.84;;;-2.53;78.39
20860;BME280;10590;48.154;11.514;2023-02-11T01:07:47;97520.84;;;-2.35;78.37
20860;BME280;10590;48.154;11.514;2023-02-11T01:12:50;97507.78;;;-2.57;79.02
20860;BME280;10590;48.154;11.514;2023-02-11T01:17:51;97526.69;;;-2.33;78.44
20860;BME280;10590;48.154;11.514;2023-02-11T01:22:53;97513.25;;;-2.51;78.56
20860;BME280;10590;48.154;11.514;2023-02-11T01:27:56;97509.16;;;-2.39;78.03
20860;BME280;10590;48.154;11.514;2023-02-11T01:32:58;97510.94;;;-2.40;78.31
20860;BME280;10590;48.154;11.514;2023-02-11T01:37:59;97511.38;;;-2.36;78.20
20860;BME280;10590;48.154;11.514;2023-02-11T01:43:02;97510.63;;;-2.30;77.35
20860;BME280;10590;48.154;11.514;2023-02-11T01:48:04;97514.44;;;-2.33;77.42
20860;BME280;10590;48.154;11.514;2023-02-11T01:53:06;97507.41;;;-2.53;78.59
20860;BME280;10590;48.154;11.514;2023-02-11T01:58:24;97505.28;;;-2.43;78.17
20860;BME280;10590;48.154;11.514;2023-02-11T02:03:26;97511.69;;;-2.46;77.65
20860;BME280;10590;48.154;11.514;2023-02-11T02:08:32;97512.50;;;-2.45;77.91
20860;BME280;10590;48.154;11.514;2023-02-11T02:13:38;97507.59;;;-2.55;78.42
20860;BME280;10590;48.154;11.514;2023-02-11T02:18:47;97504.63;;;-2.67;78.20
20860;BME280;10590;48.154;11.514;2023-02-11T02:24:13;97492.31;;;-2.73;78.76
20860;BME280;10590;48.154;11.514;2023-02-11T02:29:44;97479.97;;;-2.79;78.79
20860;BME280;10590;48.154;11.514;2023-02-11T02:35:02;97467.91;;;-2.80;78.77
20860;BME280;10590;48.154;11.514;2023-02-11T02:40:13;97459.81;;;-2.85;78.94
20860;BME280;10590;48.154;11.514;2023-02-11T02:45:17;97461.56;;;-2.71;78.14
20860;BME280;10590;48.154;11.514;2023-02-11T02:56:20;97443.91;;;-2.90;78.61
20860;BME280;10590;48.154;11.514;2023-02-11T03:01:31;97436.31;;;-2.85;78.84
20860;BME280;10590;48.154;11.514;2023-02-11T03:06:41;97424.81;;;-2.91;78.79
20860;BME280;10590;48.154;11.514;2023-02-11T03:11:47;97417.53;;;-2.95;79.12
20860;BME280;10590;48.154;11.514;2023-02-11T03:16:51;97418.16;;;-2.93;78.80
20860;BME280;10590;48.154;11.514;2023-02-11T03:21:55;97405.47;;;-2.96;78.40
20860;BME280;10590;48.154;11.514;2023-02-11T03:27:02;97408.09;;;-2.75;77.35
20860;BME280;10590;48.154;11.514;2023-02-11T03:32:10;97406.97;;;-2.66;76.62
20860;BME280;10590;48.154;11.514;2023-02-11T03:37:17;97403.25;;;-2.57;76.29
20860;BME280;10590;48.154;11.514;2023-02-11T03:42:22;97421.88;;;-2.38;75.20
20860;BME280;10590;48.154;11.514;2023-02-11T03:47:26;97413.50;;;-2.55;76.21
20860;BME280;10590;48.154;11.514;2023-02-11T03:52:31;97420.84;;;-2.44;74.94
20860;BME280;10590;48.154;11.514;2023-02-11T03:57:35;97428.13;;;-2.39;74.96
20860;BME280;10590;48.154;11.514;2023-02-11T04:02:38;97423.22;;;-2.49;74.96
20860;BME280;10590;48.154;11.514;2023-02-11T04:07:40;97419.03;;;-2.43;74.15
20860;BME280;10590;48.154;11.514;2023-02-11T04:12:43;97420.28;;;-2.39;73.83
20860;BME280;10590;48.154;11.514;2023-02-11T04:17:47;97425.16;;;-2.58;74.87
20860;BME280;10590;48.154;11.514;2023-02-11T04:22:50;97438.63;;;-2.33;74.45
20860;BME280;10590;48.154;11.514;2023-02-11T04:27:53;97417.28;;;-2.36;73.29
20860;BME280;10590;48.154;11.514;2023-02-11T04:32:55;97436.72;;;-2.17;72.80
20860;BME280;10590;48.154;11.514;2023-02-11T04:37:58;97443.63;;;-2.10;72.69
20860;BME280;10590;48.154;11.514;2023-02-11T04:43:01;97452.09;;;-2.08;72.64
20860;BME280;10590;48.154;11.514;2023-02-11T04:48:02;97467.88;;;-2.44;73.91
20860;BME280;10590;48.154;11.514;2023-02-11T04:53:04;97470.38;;;-2.36;74.11
20860;BME280;10590;48.154;11.514;2023-02-11T04:58:07;97473.28;;;-2.67;75.50
20860;BME280;10590;48.154;11.514;2023-02-11T05:03:09;97472.75;;;-2.77;76.35
20860;BME280;10590;48.154;11.514;2023-02-11T05:08:11;97478.28;;;-2.86;75.97
20860;BME280;10590;48.154;11.514;2023-02-11T05:13:14;97469.16;;;-2.76;77.08
20860;BME280;10590;48.154;11.514;2023-02-11T05:18:15;97464.16;;;-2.56;76.38
20860;BME280;10590;48.154;11.514;2023-02-11T05:23:17;97455.84;;;-2.81;76.72
20860;BME280;10590;48.154;11.514;2023-02-11T05:28:20;97451.50;;;-2.74;77.15
20860;BME280;10590;48.154;11.514;2023-02-11T05:33:22;97441.47;;;-2.70;77.36
20860;BME280;10590;48.154;11.514;2023-02-11T05:38:23;97445.75;;;-2.48;75.99
20860;BME280;10590;48.154;11.514;2023-02-11T05:43:26;97440.06;;;-2.51;75.57
20860;BME280;10590;48.154;11.514;2023-02-11T05:48:28;97438.25;;;-2.30;74.85
20860;BME280;10590;48.154;11.514;2023-02-11T05:53:29;97433.59;;;-2.34;75.66
20860;BME280;10590;48.154;11.514;2023-02-11T05:58:32;97427.03;;;-2.23;74.71
20860;BME280;10590;48.154;11.514;2023-02-11T06:03:34;97424.72;;;-2.12;74.62
20860;BME280;10590;48.154;11.514;2023-02-11T06:08:36;97407.81;;;-2.09;74.39
20860;BME280;10590;48.154;11.514;2023-02-11T06:13:39;97411.19;;;-1.87;74.33
20860;BME280;10590;48.154;11.514;2023-02-11T06:18:40;97408.28;;;-1.99;74.50
20860;BME280;10590;48.154;11.514;2023-02-11T06:23:42;97426.22;;;-1.68;74.07
20860;BME280;10590;48.154;11.514;2023-02-11T06:28:45;97431.25;;;-1.25;71.50
20860;BME280;10590;48.154;11.514;2023-02-11T06:33:46;97441.97;;;-1.07;70.78
20860;BME280;10590;48.154;11.514;2023-02-11T06:38:49;97433.63;;;-1.31;71.36
20860;BME280;10590;48.154;11.514;2023-02-11T06:43:52;97426.28;;;-1.55;71.90
20860;BME280;10590;48.154;11.514;2023-02-11T06:48:54;97429.03;;;-1.22;71.45
20860;BME280;10590;48.154;11.514;2023-02-11T06:53:55;97425.38;;;-1.27;70.67
20860;BME280;10590;48.154;11.514;2023-02-11T06:58:59;97431.09;;;-1.04;70.79
20860;BME280;10590;48.154;11.514;2023-02-11T07:04:00;97437.06;;;-0.62;69.10
20860;BME280;10590;48.154;11.514;2023-02-11T07:09:02;97456.06;;;-0.34;67.87
20860;BME280;10590;48.154;11.514;2023-02-11T07:14:06;97447.78;;;-0.51;67.94
20860;BME280;10590;48.154;11.514;2023-02-11T07:19:08;97451.56;;;-0.80;69.44
20860;BME280;10590;48.154;11.514;2023-02-11T07:24:11;97435.66;;;-0.72;69.61
20860;BME280;10590;48.154;11.514;2023-02-11T07:29:14;97424.56;;;-0.74;69.54
20860;BME280;10590;48.154;11.514;2023-02-11T07:34:16;97412.06;;;-0.78;67.58
20860;BME280;10590;48.154;11.514;2023-02-11T07:39:17;97419.53;;;-0.55;66.38
20860;BME280;10590;48.154;11.514;2023-02-11T07:44:22;97430.63;;;-0.01;64.89
20860;BME280;10590;48.154;11.514;2023-02-11T07:49:24;97428.81;;;0.20;64.79
20860;BME280;10590;48.154;11.514;2023-02-11T07:54:25;97424.19;;;-0.05;64.25
20860;BME280;10590;48.154;11.514;2023-02-11T07:59:28;97425.00;;;0.03;64.04
20860;BME280;10590;48.154;11.514;2023-02-11T08:04:30;97404.19;;;0.21;63.39
20860;BME280;10590;48.154;11.514;2023-02-11T08:09:34;97399.03;;;0.52;61.23
20860;BME280;10590;48.154;11.514;2023-02-11T08:14:38;97400.38;;;1.19;60.04
20860;BME280;10590;48.154;11.514;2023-02-11T08:19:40;97390.88;;;1.18;58.44
20860;BME280;10590;48.154;11.514;2023-02-11T08:24:42;97396.81;;;1.64;58.20
20860;BME280;10590;48.154;11.514;2023-02-11T08:29:44;97386.88;;;1.41;58.41
20860;BME280;10590;48.154;11.514;2023-02-11T08:34:49;97392.88;;;1.48;58.49
20860;BME280;10590;48.154;11.514;2023-02-11T08:39:51;97405.25;;;1.72;57.88
20860;BME280;10590;48.154;11.514;2023-02-11T08:44:54;97420.09;;;1.91;57.13
20860;BME280;10590;48.154;11.514;2023-02-11T08:49:56;97417.78;;;1.77;58.54
20860;BME280;10590;48.154;11.514;2023-02-11T08:54:58;97418.53;;;1.84;58.73
20860;BME280;10590;48.154;11.514;2023-02-11T09:00:01;97410.09;;;1.75;59.38
20860;BME280;10590;48.154;11.514;2023-02-11T09:05:03;97403.28;;;1.92;58.66
20860;BME280;10590;48.154;11.514;2023-02-11T09:10:05;97396.94;;;2.00;58.09
20860;BME280;10590;48.154;11.514;2023-02-11T09:15:08;97381.97;;;2.19;57.32
20860;BME280;10590;48.154;11.514;2023-02-11T09:20:10;97403.13;;;2.31;56.95
20860;BME280;10590;48.154;11.514;2023-02-11T09:25:12;97374.06;;;2.37;57.13
20860;BME280;10590;48.154;11.514;2023-02-11T09:30:15;97396.47;;;2.46;57.22
20860;BME280;10590;48.154;11.514;2023-02-11T09:35:16;97392.81;;;2.84;56.16
20860;BME280;10590;48.154;11.514;2023-02-11T09:40:18;97383.44;;;2.51;56.50
20860;BME280;10590;48.154;11.514;2023-02-11T09:45:23;97404.22;;;2.41;57.27
20860;BME280;10590;48.154;11.514;2023-02-11T09:50:30;97402.19;;;3.40;55.19
20860;BME280;10590;48.154;11.514;2023-02-11T09:55:34;97400.34;;;4.52;51.66
20860;BME280;10590;48.154;11.514;2023-02-11T10:00:43;97377.25;;;5.44;50.24
20860;BME280;10590;48.154;11.514;2023-02-11T10:06:06;97370.22;;;4.30;51.74
20860;BME280;10590;48.154;11.514;2023-02-11T10:11:20;97368.31;;;3.78;52.94
20860;BME280;10590;48.154;11.514;2023-02-11T10:16:35;97353.84;;;4.04;52.71
20860;BME280;10590;48.154;11.514;2023-02-11T10:21:49;97358.88;;;4.06;52.55
20860;BME280;10590;48.154;11.514;2023-02-11T10:26:52;97377.81;;;4.26;52.33
20860;BME280;10590;48.154;11.514;2023-02-11T10:31:55;97372.19;;;4.86;49.95
20860;BME280;10590;48.154;11.514;2023-02-11T10:36:59;97368.22;;;5.00;49.69
20860;BME280;10590;48.154;11.514;2023-02-11T10:42:04;97354.69;;;4.97;49.33
20860;BME280;10590;48.154;11.514;2023-02-11T10:47:12;97356.53;;;4.96;47.66
20860;BME280;10590;48.154;11.514;2023-02-11T10:52:18;97347.06;;;5.29;48.37
20860;BME280;10590;48.154;11.514;2023-02-11T10:57:20;97354.63;;;5.70;46.18
20860;BME280;10590;48.154;11.514;2023-02-11T11:02:28;97334.72;;;5.85;46.24
20860;BME280;10590;48.154;11.514;2023-02-11T11:07:32;97339.72;;;5.64;46.24
20860;BME280;10590;48.154;11.514;2023-02-11T11:12:37;97336.66;;;5.72;44.45
20860;BME280;10590;48.154;11.514;2023-02-11T11:18:08;97339.63;;;5.42;44.14
20860;BME280;10590;48.154;11.514;2023-02-11T11:23:16;97330.56;;;5.55;44.86
20860;BME280;10590;48.154;11.514;2023-02-11T11:28:21;97329.34;;;5.46;43.84
20860;BME280;10590;48.154;11.514;2023-02-11T11:33:27;97320.53;;;5.57;42.93
20860;BME280;10590;48.154;11.514;2023-02-11T11:38:30;97312.91;;;5.44;42.16
20860;BME280;10590;48.154;11.514;2023-02-11T11:43:33;97299.53;;;6.06;41.82
20860;BME280;10590;48.154;11.514;2023-02-11T11:48:39;97314.50;;;6.12;41.25
20860;BME280;10590;48.154;11.514;2023-02-11T11:53:46;97330.72;;;6.16;41.53
20860;BME280;10590;48.154;11.514;2023-02-11T11:58:51;97325.72;;;5.86;43.05
20860;BME280;10590;48.154;11.514;2023-02-11T12:04:27;97315.38;;;6.01;42.75
20860;BME280;10590;48.154;11.514;2023-02-11T12:09:40;97301.25;;;6.12;41.71
20860;BME280;10590;48.154;11.514;2023-02-11T12:14:51;97301.09;;;5.68;43.39
20860;BME280;10590;48.154;11.514;2023-02-11T12:20:11;97302.13;;;5.84;42.72
20860;BME280;10590;48.154;11.514;2023-02-11T12:25:25;97303.59;;;6.09;41.97
20860;BME280;10590;48.154;11.514;2023-02-11T12:30:42;97302.31;;;6.55;41.62
20860;BME280;10590;48.154;11.514;2023-02-11T12:35:54;97291.28;;;6.19;41.85
20860;BME280;10590;48.154;11.514;2023-02-11T12:41:06;97283.75;;;6.11;42.18
20860;BME280;10590;48.154;11.514;2023-02-11T12:46:32;97272.72;;;6.19;42.77
20860;BME280;10590;48.154;11.514;2023-02-11T12:51:54;97277.09;;;6.52;42.16
20860;BME280;10590;48.154;11.514;2023-02-11T12:56:59;97270.59;;;6.65;41.54
20860;BME280;10590;48.154;11.514;2023-02-11T13:02:10;97261.25;;;6.14;42.19
20860;BME280;10590;48.154;11.514;2023-02-11T13:07:18;97270.81;;;6.15;42.04
20860;BME280;10590;48.154;11.514;2023-02-11T13:12:23;97262.66;;;6.21;41.59
20860;BME280;10590;48.154;11.514;2023-02-11T13:17:49;97256.31;;;6.71;41.24
20860;BME280;10590;48.154;11.514;2023-02-11T13:23:01;97239.53;;;7.93;39.52
20860;BME280;10590;48.154;11.514;2023-02-11T13:28:18;97225.53;;;9.01;37.78
20860;BME280;10590;48.154;11.514;2023-02-11T13:33:30;97220.47;;;9.05;36.88
20860;BME280;10590;48.154;11.514;2023-02-11T13:38:35;97227.94;;;9.08;36.61
20860;BME280;10590;48.154;11.514;2023-02-11T13:43:37;97225.25;;;9.33;35.39
20860;BME280;10590;48.154;11.514;2023-02-11T13:48:45;97228.75;;;8.20;38.00
20860;BME280;10590;48.154;11.514;2023-02-11T13:53:50;97233.94;;;7.53;38.82
20860;BME280;10590;48.154;11.514;2023-02-11T13:58:53;97232.56;;;7.82;38.10
20860;BME280;10590;48.154;11.514;2023-02-11T14:04:18;97237.22;;;7.65;36.94
20860;BME280;10590;48.154;11.514;2023-02-11T14:09:39;97236.00;;;7.41;37.50
20860;BME280;10590;48.154;11.514;2023-02-11T14:14:56;97236.63;;;7.21;39.08
20860;BME280;10590;48.154;11.514;2023-02-11T14:20:01;97240.28;;;7.47;39.54
20860;BME280;10590;48.154;11.514;2023-02-11T14:25:15;97229.19;;;7.18;40.06
20860;BME280;10590;48.154;11.514;2023-02-11T14:36:04;97247.28;;;7.26;41.93
20860;BME280;10590;48.154;11.514;2023-02-11T14:41:19;97252.19;;;7.07;42.51
20860;BME280;10590;48.154;11.514;2023-02-11T14:46:23;97237.06;;;7.08;42.33
20860;BME280;10590;48.154;11.514;2023-02-11T14:51:29;97238.03;;;6.96;44.00
20860;BME280;10590;48.154;11.514;2023-02-11T14:56:33;97247.84;;;6.47;44.84
20860;BME280;10590;48.154;11.514;2023-02-11T15:01:40;97250.56;;;6.79;45.27
20860;BME280;10590;48.154;11.514;2023-02-11T15:06:45;97254.94;;;6.63;45.60
20860;BME280;10590;48.154;11.514;2023-02-11T15:11:51;97254.03;;;6.53;46.31
20860;BME280;10590;48.154;11.514;2023-02-11T15:16:56;97253.72;;;6.27;47.43
20860;BME280;10590;48.154;11.514;2023-02-11T15:21:58;97236.94;;;6.44;46.63
20860;BME280;10590;48.154;11.514;2023-02-11T15:27:03;97237.91;;;6.59;47.03
20860;BME280;10590;48.154;11.514;2023-02-11T15:32:11;97253.47;;;6.51;48.14
20860;BME280;10590;48.154;11.514;2023-02-11T15:37:18;97254.75;;;6.48;48.16
20860;BME280;10590;48.154;11.514;2023-02-11T15:42:24;97267.59;;;6.34;48.91
20860;BME280;10590;48.154;11.514;2023-02-11T15:47:28;97275.31;;;6.14;49.52
20860;BME280;10590;48.154;11.514;2023-02-11T15:52:30;97266.63;;;6.02;49.70
20860;BME280;10590;48.154;11.514;2023-02-11T15:57:33;97273.56;;;5.86;50.55
20860;BME280;10590;48.154;11.514;2023-02-11T16:02:36;97284.31;;;5.80;50.54
20860;BME280;10590;48.154;11.514;2023-02-11T16:07:45;97278.13;;;6.07;50.44
20860;BME280;10590;48.154;11.514;2023-02-11T16:13:00;97281.59;;;6.08;50.46
20860;BME280;10590;48.154;11.514;2023-02-11T16:18:12;97283.34;;;5.86;51.23
20860;BME280;10590;48.154;11.514;2023-02-11T16:23:20;97288.69;;;5.52;52.20
20860;BME280;10590;48.154;11.514;2023-02-11T16:28:24;97308.53;;;6.05;50.79
20860;BME280;10590;48.154;11.514;2023-02-11T16:33:25;97304.91;;;6.28;49.93
20860;BME280;10590;48.154;11.514;2023-02-11T16:38:28;97310.41;;;5.88;51.32
20860;BME280;10590;48.154;11.514;2023-02-11T16:43:32;97306.66;;;5.50;52.45
20860;BME280;10590;48.154;11.514;2023-02-11T16:48:33;97313.56;;;5.34;52.81
20860;BME280;10590;48.154;11.514;2023-02-11T16:53:35;97333.84;;;5.62;52.83
20860;BME280;10590;48.154;11.514;2023-02-11T16:58:38;97329.59;;;5.44;52.58
20860;BME280;10590;48.154;11.514;2023-02-11T17:03:39;97332.97;;;5.11;54.68
20860;BME280;10590;48.154;11.514;2023-02-11T17:08:42;97345.38;;;5.23;54.18
20860;BME280;10590;48.154;11.514;2023-02-11T17:13:46;97347.53;;;4.97;54.87
20860;BME280;10590;48.154;11.514;2023-02-11T17:18:48;97360.41;;;5.34;53.79
20860;BME280;10590;48.154;11.514;2023-02-11T17:23:49;97365.94;;;5.32;54.55
20860;BME280;10590;48.154;11.514;2023-02-11T17:28:55;97376.78;;;5.48;53.65
20860;BME280;10590;48.154;11.514;2023-02-11T17:33:56;97369.09;;;4.89;55.36
20860;BME280;10590;48.154;11.514;2023-02-11T17:38:58;97387.47;;;5.24;54.51
20860;BME280;10590;48.154;11.514;2023-02-11T17:44:02;97394.97;;;5.16;55.06
20860;BME280;10590;48.154;11.514;2023-02-11T17:49:03;97399.47;;;4.75;56.32
20860;BME280;10590;48.154;11.514;2023-02-11T17:54:07;97401.03;;;4.47;58.10
20860;BME280;10590;48.154;11.514;2023-02-11T17:59:11;97398.03;;;4.56;58.25
20860;BME280;10590;48.154;11.514;2023-02-11T18:04:15;97410.09;;;5.03;56.36
20860;BME280;10590;48.154;11.514;2023-02-11T18:09:17;97403.59;;;5.23;56.03
20860;BME280;10590;48.154;11.514;2023-02-11T18:14:21;97397.75;;;5.21;55.67
20860;BME280;10590;48.154;11.514;2023-02-11T18:19:23;97418.50;;;4.25;58.80
20860;BME280;10590;48.154;11.514;2023-02-11T18:24:25;97424.22;;;4.57;58.99
20860;BME280;10590;48.154;11.514;2023-02-11T18:29:28;97425.84;;;4.58;59.13
20860;BME280;10590;48.154;11.514;2023-02-11T18:34:29;97419.63;;;4.18;60.39
20860;BME280;10590;48.154;11.514;2023-02-11T18:39:32;97412.84;;;3.87;62.46
20860;BME280;10590;48.154;11.514;2023-02-11T18:44:35;97396.09;;;3.93;61.78
20860;BME280;10590;48.154;11.514;2023-02-11T18:49:37;97429.09;;;4.37;60.46
20860;BME280;10590;48.154;11.514;2023-02-11T18:54:38;97423.66;;;4.08;61.02
20860;BME280;10590;48.154;11.514;2023-02-11T18:59:41;97424.75;;;3.66;63.08
20860;BME280;10590;48.154;11.514;2023-02-11T19:04:43;97430.81;;;3.25;64.63
20860;BME280;10590;48.154;11.514;2023-02-11T19:09:45;97423.09;;;2.93;65.84
20860;BME280;10590;48.154;11.514;2023-02-11T19:14:48;97424.00;;;2.87;66.77
20860;BME280;10590;48.154;11.514;2023-02-11T19:19:49;97415.16;;;3.11;65.22
20860;BME280;10590;48.154;11.514;2023-02-11T19:24:51;97414.66;;;3.33;64.52
20860;BME280;10590;48.154;11.514;2023-02-11T19:29:54;97418.31;;;3.32;65.16
20860;BME280;10590;48.154;11.514;2023-02-11T19:34:56;97424.63;;;3.31;65.59
20860;BME280;10590;48.154;11.514;2023-02-11T19:39:57;97420.94;;;3.50;64.10
20860;BME280;10590;48.154;11.514;2023-02-11T19:45:00;97416.13;;;3.29;65.60
20860;BME280;10590;48.154;11.514;2023-02-11T19:50:02;97413.06;;;3.02;66.37
20860;BME280;10590;48.154;11.514;2023-02-11T19:55:05;97412.66;;;3.16;66.05
20860;BME280;10590;48.154;11.514;2023-02-11T20:00:09;97420.84;;;3.27;65.60
20860;BME280;10590;48.154;11.514;2023-02-11T20:05:11;97415.47;;;3.75;63.83
20860;BME280;10590;48.154;11.514;2023-02-11T20:10:13;97421.28;;;3.24;65.71
20860;BME280;10590;48.154;11.514;2023-02-11T20:15:16;97422.84;;;3.13;66.66
20860;BME280;10590;48.154;11.514;2023-02-11T20:20:18;97409.84;;;3.30;65.60
20860;BME280;10590;48.154;11.514;2023-02-11T20:25:19;97427.81;;;3.51;65.60
20860;BME280;10590;48.154;11.514;2023-02-11T20:30:22;97437.19;;;3.89;63.52
20860;BME280;10590;48.154;11.514;2023-02-11T20:35:24;97445.84;;;4.31;62.15
20860;BME280;10590;48.154;11.514;2023-02-11T20:40:25;97445.69;;;3.91;63.35
20860;BME280;10590;48.154;11.514;2023-02-11T20:45:28;97456.97;;;4.21;62.34
20860;BME280;10590;48.154;11.514;2023-02-11T20:50:30;97447.56;;;4.25;61.83
20860;BME280;10590;48.154;11.514;2023-02-11T20:55:35;97452.59;;;3.50;64.80
20860;BME280;10590;48.154;11.514;2023-02-11T21:00:39;97462.94;;;4.16;63.07
20860;BME280;10590;48.154;11.514;2023-02-11T21:05:40;97450.03;;;3.73;64.80
20860;BME280;10590;48.154;11.514;2023-02-11T21:10:42;97448.25;;;3.56;64.43
20860;BME280;10590;48.154;11.514;2023-02-11T21:15:45;97467.22;;;3.64;63.93
20860;BME280;10590;48.154;11.514;2023-02-11T21:20:47;97463.00;;;3.75;63.79
20860;BME280;10590;48.154;11.514;2023-02-11T21:25:49;97465.13;;;4.31;61.67
20860;BME280;10590;48.154;11.514;2023-02-11T21:30:53;97470.00;;;3.81;62.78
20860;BME280;10590;48.154;11.514;2023-02-11T21:35:57;97458.50;;;3.64;63.12
20860;BME280;10590;48.154;11.514;2023-02-11T21:41:02;97464.09;;;3.56;63.51
20860;BME280;10590;48.154;11.514;2023-02-11T21:46:08;97450.25;;;3.42;63.83
20860;BME280;10590;48.154;11.514;2023-02-11T21:51:13;97458.47;;;3.34;64.09
20860;BME280;10590;48.154;11.514;2023-02-11T21:56:17;97450.91;;;3.37;63.77
20860;BME280;10590;48.154;11.514;2023-02-11T22:01:22;97442.38;;;3.24;64.37
20860;BME280;10590;48.154;11.514;2023-02-11T22:06:28;97446.34;;;3.44;64.14
20860;BME280;10590;48.154;11.514;2023-02-11T22:11:30;97437.84;;;3.42;64.32
20860;BME280;10590;48.154;11.514;2023-02-11T22:16:33;97448.03;;;3.57;64.11
20860;BME280;10590;48.154;11.514;2023-02-11T22:21:35;97445.13;;;3.47;64.49
20860;BME280;10590;48.154;11.514;2023-02-11T22:26:36;97454.47;;;3.31;65.24
20860;BME280;10590;48.154;11.514;2023-02-11T22:31:39;97431.97;;;3.29;65.45
20860;BME280;10590;48.154;11.514;2023-02-11T22:36:44;97445.66;;;3.37;65.43
20860;BME280;10590;48.154;11.514;2023-02-11T22:41:46;97456.63;;;3.53;65.20
20860;BME280;10590;48.154;11.514;2023-02-11T22:46:50;97454.06;;;3.88;64.10
20860;BME280;10590;48.154;11.514;2023-02-11T22:51:52;97462.34;;;3.91;63.61
20860;BME280;10590;48.154;11.514;2023-02-11T22:56:53;97459.88;;;3.66;65.16
20860;BME280;10590;48.154;11.514;2023-02-11T23:01:56;97470.50;;;3.90;64.42
20860;BME280;10590;48.154;11.514;2023-02-11T23:06:58;97474.38;;;3.75;64.68
20860;BME280;10590;48.154;11.514;2023-02-11T23:11:59;97496.25;;;4.06;64.40
20860;BME280;10590;48.154;11.514;2023-02-11T23:17:02;97495.00;;;4.20;63.68
20860;BME280;10590;48.154;11.514;2023-02-11T23:22:04;97496.47;;;4.16;63.72
20860;BME280;10590;48.154;11.514;2023-02-11T23:27:05;97491.16;;;3.93;64.87
20860;BME280;10590;48.154;11.514;2023-02-11T23:32:08;97493.03;;;4.27;63.67
20860;BME280;10590;48.154;11.514;2023-02-11T23:37:10;97500.44;;;4.37;63.17
20860;BME280;10590;48.154;11.514;2023-02-11T23:42:11;97504.56;;;4.44;62.88
20860;BME280;10590;48.154;11.514;2023-02-11T23:47:14;97502.16;;;4.43;62.86
20860;BME280;10590;48.154;11.514;2023-02-11T23:52:16;97502.50;;;4.35;63.54
20860;BME280;10590;48.154;11.514;2023-02-11T23:57:17;97525.16;;;4.42;62.76
